Big Rock, Illinois
Current Conditions -  °F | °C
As of 10:52 AM on Friday 31 Oct 2014 (Local Time) from KARR Reporting Station
Scattered Clouds Scattered Clouds  
Wind Chill: 26°   Ceiling: Unl
Heat Index: 39°   Visibility: 10mi
Dew Point: 24°   Wind: 36mph
Humidity: 55%   Direction: 340°NNW
Pressure: 30.18"   Gusts: 44mph
Location:  41.76°N, 88.55°W
Report Text: KARR 311552Z 34031G38KT 10SM SCT036 04/M04 A3018 RMK AO2 PK WND 34040/1537 SLP225 T00391044
Loading
Personal Weather Stations






























Interactive Weather Map
Tropical Storm Tracking
New forecast layout! Learn more

10-Day Weather Forecast

Advertisements
Track Severe Weather on mobile